createdAt,value
2019-03-27T00:00:34.620Z,2.22
2019-03-27T00:03:03.641Z,2.08
2019-03-27T00:05:32.528Z,2.60
2019-03-27T00:08:01.417Z,3.42
2019-03-27T00:10:30.341Z,3.20
2019-03-27T00:13:00.324Z,3.33
2019-03-27T00:15:36.792Z,2.83
2019-03-27T00:18:05.687Z,2.65
2019-03-27T00:20:34.678Z,3.17
2019-03-27T00:23:03.564Z,2.85
2019-03-27T00:25:33.287Z,3.90
2019-03-27T00:28:06.872Z,4.40
2019-03-27T00:30:35.759Z,4.33
2019-03-27T00:33:04.647Z,4.10
2019-03-27T00:35:33.640Z,4.62
2019-03-27T00:38:02.670Z,5.95
2019-03-27T00:40:31.624Z,12.50
2019-03-27T00:43:00.516Z,8.45
2019-03-27T00:45:29.536Z,3.98
2019-03-27T00:47:58.501Z,4.20
2019-03-27T00:50:27.490Z,4.42
2019-03-27T00:52:56.381Z,3.33
2019-03-27T00:55:25.372Z,4.12
2019-03-27T00:57:54.172Z,4.00
2019-03-27T01:00:45.695Z,4.35
2019-03-27T01:03:14.566Z,5.28
2019-03-27T01:05:43.456Z,6.60
2019-03-27T01:08:18.882Z,7.03
2019-03-27T01:10:47.792Z,9.40
2019-03-27T01:13:19.342Z,7.83
2019-03-27T01:15:53.645Z,5.10
2019-03-27T01:18:26.337Z,5.47
2019-03-27T01:20:55.227Z,4.78
2019-03-27T01:23:24.167Z,5.10
2019-03-27T01:25:55.003Z,5.25
2019-03-27T01:28:23.942Z,5.50
2019-03-27T01:30:52.831Z,7.12
2019-03-27T01:33:21.718Z,6.05
2019-03-27T01:35:58.289Z,6.03
2019-03-27T01:38:28.931Z,4.50
2019-03-27T01:40:57.603Z,4.80
2019-03-27T01:43:27.394Z,4.50
2019-03-27T01:45:57.327Z,4.33
2019-03-27T01:48:26.146Z,3.58
2019-03-27T01:50:56.950Z,4.00
2019-03-27T01:53:33.314Z,3.70
2019-03-27T01:56:06.203Z,3.98
2019-03-27T01:58:35.336Z,3.35
2019-03-27T02:01:04.286Z,3.70
2019-03-27T02:03:34.198Z,3.92
2019-03-27T02:06:03.090Z,3.33
2019-03-27T02:08:32.183Z,3.37
2019-03-27T02:11:01.071Z,3.37
2019-03-27T02:13:34.809Z,3.42
2019-03-27T02:16:07.541Z,3.70
2019-03-27T02:18:36.657Z,3.37
2019-03-27T02:21:05.623Z,3.87
2019-03-27T02:23:34.636Z,3.80
2019-03-27T02:26:03.526Z,3.90
2019-03-27T02:28:33.435Z,3.45
2019-03-27T02:31:03.183Z,3.83
2019-03-27T02:33:32.135Z,4.22
2019-03-27T02:36:07.580Z,4.17
2019-03-27T02:38:39.049Z,3.95
2019-03-27T02:41:10.579Z,3.55
2019-03-27T02:43:39.469Z,3.70
2019-03-27T02:46:24.655Z,3.77
2019-03-27T02:48:42.573Z,3.58
2019-03-27T02:51:11.575Z,3.60
2019-03-27T02:53:40.460Z,3.92
2019-03-27T02:56:09.454Z,4.10
2019-03-27T02:58:42.429Z,4.60
2019-03-27T03:01:11.421Z,4.95
2019-03-27T03:03:42.612Z,6.17
2019-03-27T03:06:10.948Z,5.28
2019-03-27T03:08:39.939Z,4.75
2019-03-27T03:11:08.926Z,4.40
2019-03-27T03:13:37.770Z,3.02
2019-03-27T03:16:06.710Z,3.00
2019-03-27T03:18:39.997Z,3.30
2019-03-27T03:21:11.390Z,3.17
2019-03-27T03:23:42.895Z,2.77
2019-03-27T03:26:12.648Z,3.20
2019-03-27T03:28:42.519Z,2.85
2019-03-27T03:31:11.411Z,3.10
2019-03-27T03:33:41.300Z,3.00
2019-03-27T03:36:10.315Z,3.27
2019-03-27T03:38:39.223Z,3.20
2019-03-27T03:41:10.985Z,3.33
2019-03-27T03:43:39.950Z,3.27
2019-03-27T03:46:08.842Z,3.33
2019-03-27T03:48:37.641Z,3.10
2019-03-27T03:51:06.518Z,3.15
2019-03-27T03:53:35.816Z,3.33
2019-03-27T03:56:04.710Z,2.90
2019-03-27T03:58:34.353Z,3.40
2019-03-27T04:01:03.629Z,3.33
2019-03-27T04:03:35.137Z,5.53
2019-03-27T04:06:08.021Z,3.05
2019-03-27T04:08:37.779Z,2.95
2019-03-27T04:11:09.540Z,3.17
2019-03-27T04:13:39.245Z,2.80
2019-03-27T04:16:12.735Z,3.00
2019-03-27T04:18:41.717Z,3.20
2019-03-27T04:21:10.598Z,2.58
2019-03-27T04:23:39.488Z,2.70
2019-03-27T04:26:12.270Z,2.67
2019-03-27T04:28:41.261Z,3.60
2019-03-27T04:31:11.253Z,3.27
2019-03-27T04:33:43.239Z,3.65
2019-03-27T04:36:12.229Z,3.27
2019-03-27T04:38:40.996Z,3.50
2019-03-27T04:41:13.592Z,3.75
2019-03-27T04:43:42.389Z,5.05
2019-03-27T04:46:11.269Z,5.75
2019-03-27T04:48:40.264Z,6.25
2019-03-27T04:51:11.919Z,6.53
2019-03-27T04:53:40.675Z,6.37
2019-03-27T04:56:13.583Z,7.05
2019-03-27T04:58:42.577Z,6.90
2019-03-27T05:01:16.382Z,6.78
2019-03-27T05:03:46.324Z,6.45
2019-03-27T05:06:15.096Z,4.97
2019-03-27T05:08:47.352Z,5.22
2019-03-27T05:11:16.452Z,5.08
2019-03-27T05:13:45.337Z,5.15
2019-03-27T05:16:14.223Z,5.12
2019-03-27T05:18:50.896Z,5.50
2019-03-27T05:21:19.785Z,5.70
2019-03-27T05:23:48.577Z,7.20
2019-03-27T05:26:17.461Z,7.78
2019-03-27T05:28:47.482Z,11.03
2019-03-27T05:31:20.371Z,8.50
2019-03-27T05:33:49.357Z,7.05
2019-03-27T05:36:18.250Z,6.85
2019-03-27T05:38:50.936Z,12.58
2019-03-27T05:41:19.814Z,6.13
2019-03-27T05:43:48.814Z,7.20
2019-03-27T05:46:17.799Z,6.78
2019-03-27T05:48:50.677Z,5.03
2019-03-27T05:51:23.054Z,5.70
2019-03-27T05:53:55.600Z,5.10
2019-03-27T05:56:24.511Z,7.33
2019-03-27T05:58:55.977Z,7.33
2019-03-27T06:01:25.889Z,4.97
2019-03-27T06:03:55.795Z,7.05
2019-03-27T06:06:24.679Z,5.72
2019-03-27T06:08:53.724Z,15.32
2019-03-27T06:11:22.665Z,5.60
2019-03-27T06:13:51.653Z,12.20
2019-03-27T06:16:23.658Z,17.10
2019-03-27T06:18:52.609Z,18.27
2019-03-27T06:21:21.600Z,6.40
2019-03-27T06:23:50.489Z,8.23
2019-03-27T06:26:19.582Z,8.78
2019-03-27T06:28:48.477Z,5.30
2019-03-27T06:31:17.468Z,7.80
2019-03-27T06:33:46.352Z,6.20
2019-03-27T06:36:16.168Z,7.12
2019-03-27T06:38:45.996Z,3.83
2019-03-27T06:41:14.865Z,3.67
2019-03-27T06:43:43.669Z,3.12
2019-03-27T06:46:12.545Z,3.15
2019-03-27T06:48:41.432Z,4.40
2019-03-27T06:51:10.224Z,3.65
2019-03-27T06:53:44.138Z,4.03
2019-03-27T06:56:17.063Z,5.45
2019-03-27T06:58:54.398Z,3.42
2019-03-27T07:01:23.837Z,3.00
2019-03-27T07:03:53.667Z,2.45
2019-03-27T07:06:22.625Z,2.20
2019-03-27T07:08:55.484Z,2.15
2019-03-27T07:11:25.411Z,2.65
2019-03-27T07:14:00.431Z,3.08
2019-03-27T07:16:29.324Z,2.70
2019-03-27T07:19:04.456Z,2.52
2019-03-27T07:21:33.347Z,3.33
2019-03-27T07:24:06.025Z,2.40
2019-03-27T07:26:34.931Z,2.50
2019-03-27T07:29:06.282Z,1.90
2019-03-27T07:31:35.258Z,1.80
2019-03-27T07:34:04.245Z,3.40
2019-03-27T07:36:33.038Z,2.87
2019-03-27T07:39:10.902Z,8.25
2019-03-27T07:41:36.854Z,8.98
2019-03-27T07:44:05.743Z,12.40
2019-03-27T07:46:34.633Z,6.35
2019-03-27T07:49:03.524Z,9.98
2019-03-27T07:51:33.539Z,3.80
2019-03-27T07:54:02.429Z,1.95
2019-03-27T07:56:31.419Z,3.60
2019-03-27T07:59:01.354Z,2.52
2019-03-27T08:01:35.219Z,1.80
2019-03-27T08:04:14.426Z,2.00
2019-03-27T08:06:42.340Z,1.90
2019-03-27T08:09:15.126Z,1.80
2019-03-27T08:11:45.031Z,1.50
2019-03-27T08:14:17.416Z,1.20
2019-03-27T08:16:46.293Z,1.37
2019-03-27T08:19:15.092Z,1.52
2019-03-27T08:21:43.972Z,1.20
2019-03-27T08:24:17.694Z,1.00
2019-03-27T08:26:49.036Z,1.52
2019-03-27T08:29:18.043Z,2.22
2019-03-27T08:31:48.230Z,3.05
2019-03-27T08:34:21.932Z,3.47
2019-03-27T08:36:50.770Z,3.17
2019-03-27T08:39:22.277Z,2.35
2019-03-27T08:41:51.160Z,1.70
2019-03-27T08:44:22.823Z,2.65
2019-03-27T08:46:55.400Z,2.50
2019-03-27T08:49:25.213Z,1.27
2019-03-27T08:51:54.094Z,1.95
2019-03-27T08:54:22.984Z,0.93
2019-03-27T08:56:51.975Z,1.67
2019-03-27T08:59:20.735Z,1.55
2019-03-27T09:01:49.648Z,1.90
2019-03-27T09:04:18.553Z,1.45
2019-03-27T09:06:47.427Z,2.10
2019-03-27T09:09:20.059Z,1.10
2019-03-27T09:11:48.996Z,1.05
2019-03-27T09:14:19.767Z,1.20
2019-03-27T09:16:50.560Z,1.07
2019-03-27T09:19:19.453Z,2.05
2019-03-27T09:21:52.337Z,1.52
2019-03-27T09:24:21.225Z,1.20
2019-03-27T09:26:50.018Z,1.12
2019-03-27T09:29:18.903Z,0.95
2019-03-27T09:31:47.894Z,1.10
2019-03-27T09:34:17.794Z,2.22
2019-03-27T09:36:47.003Z,1.72
2019-03-27T09:39:15.898Z,1.40
2019-03-27T09:41:44.782Z,1.27
2019-03-27T09:44:17.782Z,1.12
2019-03-27T09:46:46.657Z,0.80
2019-03-27T09:49:18.928Z,0.80
2019-03-27T09:51:48.945Z,2.05
2019-03-27T09:54:17.832Z,2.52
2019-03-27T09:56:49.282Z,1.85
2019-03-27T09:59:19.169Z,1.17
2019-03-27T10:01:49.087Z,1.10
2019-03-27T10:04:19.094Z,1.98
2019-03-27T10:06:48.116Z,1.00
2019-03-27T10:09:16.929Z,1.60
2019-03-27T10:11:45.903Z,4.78
2019-03-27T10:14:14.785Z,1.20
2019-03-27T10:16:46.236Z,6.90
2019-03-27T10:19:15.123Z,0.57
2019-03-27T10:21:44.013Z,1.98
2019-03-27T10:24:15.563Z,1.47
2019-03-27T10:26:45.487Z,1.10
2019-03-27T10:29:14.472Z,1.17
2019-03-27T10:31:43.367Z,1.60
2019-03-27T10:34:13.092Z,2.25
2019-03-27T10:36:41.969Z,1.35
2019-03-27T10:39:10.949Z,1.30
2019-03-27T10:41:39.840Z,2.47
2019-03-27T10:44:09.667Z,2.33
2019-03-27T10:46:38.540Z,2.62
2019-03-27T10:49:07.434Z,1.65
2019-03-27T10:51:36.344Z,0.90
2019-03-27T10:54:08.896Z,3.77
2019-03-27T10:56:37.886Z,2.85
2019-03-27T10:59:06.878Z,18.40
2019-03-27T11:01:35.767Z,54.90
2019-03-27T11:04:04.657Z,2.62
2019-03-27T11:06:37.813Z,2.05
2019-03-27T11:09:09.236Z,2.58
2019-03-27T11:11:38.187Z,7.78
2019-03-27T11:14:07.075Z,5.85
2019-03-27T11:16:35.966Z,4.40
2019-03-27T11:19:04.856Z,3.58
2019-03-27T11:21:34.669Z,3.95
2019-03-27T11:24:13.762Z,1.77
2019-03-27T11:26:42.685Z,1.27
2019-03-27T11:29:17.718Z,8.58
2019-03-27T11:31:46.608Z,1.45
2019-03-27T11:34:16.554Z,0.72
2019-03-27T11:36:45.512Z,2.65
2019-03-27T11:39:14.401Z,0.93
2019-03-27T11:41:43.293Z,89.60
2019-03-27T11:44:12.858Z,18.30
2019-03-27T11:46:41.994Z,2.87
2019-03-27T11:49:10.885Z,4.40
2019-03-27T11:51:39.873Z,8.45
2019-03-27T11:54:08.767Z,5.28
2019-03-27T11:56:37.652Z,7.53
2019-03-27T11:59:06.650Z,3.55
2019-03-27T12:01:42.049Z,0.93
2019-03-27T12:04:05.963Z,5.35
2019-03-27T12:06:34.850Z,6.65
2019-03-27T12:09:04.876Z,1.25
2019-03-27T12:11:36.524Z,1.50
2019-03-27T12:14:08.071Z,1.62
2019-03-27T12:16:39.532Z,1.10
2019-03-27T12:19:08.409Z,1.10
2019-03-27T12:21:39.714Z,2.22
2019-03-27T12:24:13.153Z,6.58
2019-03-27T12:26:42.050Z,1.90
2019-03-27T12:29:10.931Z,5.22
2019-03-27T12:31:39.822Z,5.87
2019-03-27T12:34:11.893Z,7.70
2019-03-27T12:36:39.443Z,1.40
2019-03-27T12:39:08.471Z,10.95
2019-03-27T12:41:38.349Z,5.80
2019-03-27T12:44:11.129Z,2.20
2019-03-27T12:46:43.908Z,1.80
2019-03-27T12:49:12.904Z,1.90
2019-03-27T12:51:41.698Z,2.92
2019-03-27T12:54:10.578Z,5.47
2019-03-27T12:56:42.028Z,7.35
2019-03-27T12:59:17.677Z,9.68
2019-03-27T13:01:50.229Z,4.05
2019-03-27T13:04:22.596Z,8.55
2019-03-27T13:06:52.534Z,5.10
2019-03-27T13:09:23.167Z,1.80
2019-03-27T13:11:59.511Z,2.00
2019-03-27T13:14:29.546Z,2.90
2019-03-27T13:16:58.440Z,2.70
2019-03-27T13:19:27.343Z,1.75
2019-03-27T13:21:56.216Z,1.90
2019-03-27T13:24:25.113Z,2.08
2019-03-27T13:26:59.635Z,1.65
2019-03-27T13:29:32.408Z,2.17
2019-03-27T13:32:02.324Z,1.67
2019-03-27T13:34:31.315Z,2.45
2019-03-27T13:37:00.204Z,3.60
2019-03-27T13:39:28.994Z,6.42
2019-03-27T13:41:57.982Z,8.23
2019-03-27T13:44:36.908Z,5.17
2019-03-27T13:47:03.650Z,2.50
2019-03-27T13:49:34.873Z,1.67
2019-03-27T13:52:03.778Z,1.47
2019-03-27T13:54:36.556Z,2.20
2019-03-27T13:57:09.255Z,3.03
2019-03-27T13:59:39.054Z,1.80
2019-03-27T14:02:07.937Z,7.17
2019-03-27T14:04:37.790Z,7.20
2019-03-27T14:07:06.740Z,6.15
2019-03-27T14:09:35.628Z,4.50
2019-03-27T14:12:04.622Z,3.15
2019-03-27T14:14:33.512Z,3.17
2019-03-27T14:17:02.504Z,5.67
2019-03-27T14:19:33.953Z,4.47
2019-03-27T14:22:02.845Z,4.30
2019-03-27T14:24:35.828Z,3.22
2019-03-27T14:27:05.744Z,3.60
2019-03-27T14:29:38.639Z,2.75
2019-03-27T14:32:07.410Z,2.27
2019-03-27T14:34:36.300Z,10.18
2019-03-27T14:37:05.394Z,11.48
2019-03-27T14:39:34.286Z,8.55
2019-03-27T14:42:03.289Z,8.43
2019-03-27T14:44:32.267Z,2.27
2019-03-27T14:47:01.157Z,4.78
2019-03-27T14:49:29.952Z,2.95
2019-03-27T14:52:08.253Z,1.92
2019-03-27T14:54:30.279Z,2.30
2019-03-27T14:56:59.170Z,2.35
2019-03-27T14:59:30.013Z,5.42
2019-03-27T15:01:59.941Z,3.37
2019-03-27T15:04:28.913Z,3.45
2019-03-27T15:06:57.803Z,2.60
2019-03-27T15:09:26.798Z,2.98
2019-03-27T15:11:55.688Z,12.58
2019-03-27T15:14:24.572Z,13.48
2019-03-27T15:16:53.462Z,36.65
2019-03-27T15:19:22.352Z,26.05
2019-03-27T15:21:51.349Z,19.73
2019-03-27T15:24:20.722Z,13.03
2019-03-27T15:26:53.832Z,6.90
2019-03-27T15:29:25.182Z,8.13
2019-03-27T15:31:55.093Z,5.62
2019-03-27T15:34:23.987Z,10.72
2019-03-27T15:36:52.871Z,7.62
2019-03-27T15:39:21.761Z,10.88
2019-03-27T15:41:50.532Z,10.32
2019-03-27T15:44:20.949Z,7.97
2019-03-27T15:46:49.871Z,9.48
2019-03-27T15:49:18.856Z,11.22
2019-03-27T15:51:47.748Z,12.23
2019-03-27T15:54:20.670Z,9.78
2019-03-27T15:56:49.625Z,5.50
2019-03-27T15:59:21.081Z,4.10
2019-03-27T16:01:49.959Z,3.98
2019-03-27T16:04:18.848Z,6.25
2019-03-27T16:06:47.840Z,9.78
2019-03-27T16:09:17.140Z,8.08
2019-03-27T16:11:47.362Z,6.72
2019-03-27T16:14:16.205Z,6.05
2019-03-27T16:17:01.285Z,3.75
2019-03-27T16:19:15.670Z,4.47
2019-03-27T16:21:44.580Z,4.70
2019-03-27T16:24:16.014Z,3.65
2019-03-27T16:26:58.513Z,4.67
2019-03-27T16:29:17.888Z,4.42
2019-03-27T16:31:46.774Z,3.67
2019-03-27T16:34:15.670Z,3.70
2019-03-27T16:36:45.610Z,4.03
2019-03-27T16:39:14.464Z,4.67
2019-03-27T16:41:46.879Z,10.18
2019-03-27T16:44:15.866Z,20.88
2019-03-27T16:46:44.934Z,29.10
2019-03-27T16:49:13.809Z,23.77
2019-03-27T16:51:42.715Z,18.75
2019-03-27T16:54:11.690Z,16.82
2019-03-27T16:56:40.685Z,16.62
2019-03-27T16:59:09.585Z,19.57
2019-03-27T17:01:41.128Z,21.25
2019-03-27T17:04:10.133Z,23.85
2019-03-27T17:06:39.005Z,23.10
2019-03-27T17:09:08.439Z,24.02
2019-03-27T17:11:37.398Z,24.00
2019-03-27T17:14:06.288Z,23.38
2019-03-27T17:16:35.292Z,27.02
2019-03-27T17:19:04.380Z,29.35
2019-03-27T17:21:35.731Z,28.52
2019-03-27T17:24:04.610Z,30.05
2019-03-27T17:26:34.526Z,30.68
2019-03-27T17:29:06.952Z,28.50
2019-03-27T17:31:35.888Z,28.30
2019-03-27T17:34:06.984Z,27.50
2019-03-27T17:36:39.604Z,25.15
2019-03-27T17:39:09.213Z,26.10
2019-03-27T17:41:42.196Z,27.15
2019-03-27T17:44:13.478Z,31.50
2019-03-27T17:46:42.433Z,32.85
2019-03-27T17:49:11.350Z,30.40
2019-03-27T17:51:41.167Z,30.77
2019-03-27T17:54:20.450Z,29.75
2019-03-27T17:56:42.462Z,31.10
2019-03-27T17:59:11.513Z,33.00
2019-03-27T18:01:40.482Z,33.42
2019-03-27T18:04:10.395Z,33.15
2019-03-27T18:06:41.951Z,31.12
2019-03-27T18:09:10.942Z,30.65
2019-03-27T18:11:40.135Z,28.80
2019-03-27T18:14:09.028Z,27.17
2019-03-27T18:16:44.781Z,27.45
2019-03-27T18:19:16.622Z,27.70
2019-03-27T18:21:45.316Z,27.17
2019-03-27T18:24:14.233Z,26.65
2019-03-27T18:26:45.971Z,25.08
2019-03-27T18:29:17.429Z,20.62
2019-03-27T18:31:47.242Z,19.85
2019-03-27T18:34:16.731Z,20.25
2019-03-27T18:36:48.218Z,21.27
2019-03-27T18:39:17.172Z,18.57
2019-03-27T18:41:48.618Z,23.20
2019-03-27T18:44:21.706Z,20.00
2019-03-27T18:46:50.758Z,19.40
2019-03-27T18:49:20.584Z,16.30
2019-03-27T18:51:49.501Z,18.32
2019-03-27T18:54:23.615Z,20.05
2019-03-27T18:56:53.013Z,19.95
2019-03-27T18:59:22.926Z,19.07
2019-03-27T19:01:54.204Z,20.25
2019-03-27T19:04:23.166Z,21.68
2019-03-27T19:06:58.546Z,20.25
2019-03-27T19:09:26.575Z,19.25
2019-03-27T19:11:55.565Z,19.25
2019-03-27T19:14:24.458Z,25.17
2019-03-27T19:16:53.353Z,50.73
2019-03-27T19:19:22.441Z,33.20
2019-03-27T19:21:51.333Z,35.80
2019-03-27T19:24:20.322Z,35.45
2019-03-27T19:26:49.209Z,33.40
2019-03-27T19:29:18.959Z,32.73
2019-03-27T19:31:48.120Z,26.82
2019-03-27T19:34:17.940Z,30.43
2019-03-27T19:36:48.556Z,29.77
2019-03-27T19:39:22.669Z,24.10
2019-03-27T19:41:54.324Z,22.05
2019-03-27T19:44:23.212Z,22.52
2019-03-27T19:46:52.123Z,21.15
2019-03-27T19:49:20.998Z,22.95
2019-03-27T19:51:50.905Z,22.00
2019-03-27T19:54:26.896Z,21.95
2019-03-27T19:56:53.433Z,21.87
2019-03-27T19:59:22.384Z,21.07
2019-03-27T20:01:51.183Z,22.58
2019-03-27T20:04:20.062Z,22.67
2019-03-27T20:06:49.914Z,24.90
2019-03-27T20:09:18.868Z,22.60
2019-03-27T20:11:47.858Z,25.00
2019-03-27T20:14:19.318Z,29.48
2019-03-27T20:16:48.297Z,25.70
2019-03-27T20:19:17.291Z,26.10
2019-03-27T20:21:46.280Z,21.93
2019-03-27T20:24:15.171Z,20.48
2019-03-27T20:26:45.160Z,23.05
2019-03-27T20:29:16.648Z,24.30
2019-03-27T20:31:46.423Z,28.17
2019-03-27T20:34:15.335Z,26.33
2019-03-27T20:36:46.684Z,24.87
2019-03-27T20:39:15.681Z,23.67
2019-03-27T20:41:44.566Z,23.92
2019-03-27T20:44:18.476Z,25.88
2019-03-27T20:46:50.900Z,23.85
2019-03-27T20:49:19.842Z,25.00
2019-03-27T20:51:48.729Z,22.30
2019-03-27T20:54:18.641Z,23.07
2019-03-27T20:56:50.099Z,22.02
2019-03-27T20:59:20.003Z,22.10
2019-03-27T21:01:48.892Z,23.27
2019-03-27T21:04:17.781Z,25.92
2019-03-27T21:06:46.770Z,26.87
2019-03-27T21:09:23.750Z,25.72
2019-03-27T21:11:56.004Z,27.65
2019-03-27T21:14:24.191Z,27.87
2019-03-27T21:16:52.991Z,26.20
2019-03-27T21:19:22.073Z,26.68
2019-03-27T21:21:50.962Z,21.35
2019-03-27T21:24:23.632Z,18.00
2019-03-27T21:26:52.597Z,18.85
2019-03-27T21:29:25.380Z,19.17
2019-03-27T21:31:54.307Z,15.67
2019-03-27T21:34:23.305Z,13.62
2019-03-27T21:36:52.185Z,14.33
2019-03-27T21:39:25.644Z,12.75
2019-03-27T21:41:54.162Z,12.60
2019-03-27T21:44:23.052Z,12.05
2019-03-27T21:46:56.140Z,10.48
2019-03-27T21:49:25.033Z,11.90
2019-03-27T21:51:55.069Z,13.25
2019-03-27T21:54:25.878Z,11.80
2019-03-27T21:56:59.341Z,13.95
2019-03-27T21:59:28.267Z,14.43
2019-03-27T22:01:58.086Z,13.93
2019-03-27T22:04:27.886Z,16.80
2019-03-27T22:07:01.141Z,16.30
2019-03-27T22:09:30.069Z,15.48
2019-03-27T22:11:59.885Z,17.15
2019-03-27T22:14:28.770Z,19.12
2019-03-27T22:17:00.315Z,18.12
2019-03-27T22:19:29.315Z,19.95
2019-03-27T22:21:58.202Z,18.05
2019-03-27T22:24:27.094Z,17.80
2019-03-27T22:26:55.997Z,16.75
2019-03-27T22:29:27.331Z,15.23
2019-03-27T22:31:56.423Z,14.35
2019-03-27T22:34:26.248Z,14.85
2019-03-27T22:36:55.228Z,14.63
2019-03-27T22:39:28.110Z,13.18
2019-03-27T22:42:02.723Z,13.65
2019-03-27T22:44:33.877Z,12.05
2019-03-27T22:47:02.766Z,15.30
2019-03-27T22:49:31.796Z,16.17
2019-03-27T22:52:01.775Z,17.20
2019-03-27T22:54:30.784Z,15.32
2019-03-27T22:56:59.782Z,17.12
2019-03-27T22:59:29.156Z,17.60
2019-03-27T23:02:01.277Z,17.25
2019-03-27T23:04:32.501Z,19.60
2019-03-27T23:07:01.665Z,23.77
2019-03-27T23:09:30.655Z,24.05
2019-03-27T23:11:59.891Z,23.42
2019-03-27T23:14:28.946Z,24.35
2019-03-27T23:16:58.983Z,23.45
2019-03-27T23:19:27.849Z,20.40
2019-03-27T23:21:56.946Z,19.15
2019-03-27T23:24:27.949Z,16.95
2019-03-27T23:26:56.978Z,14.83
2019-03-27T23:29:26.285Z,14.65
2019-03-27T23:31:57.848Z,15.10
2019-03-27T23:34:27.336Z,14.28
2019-03-27T23:36:57.367Z,13.88
2019-03-27T23:39:26.293Z,13.78
2019-03-27T23:41:57.740Z,13.95
2019-03-27T23:44:30.695Z,13.13
2019-03-27T23:47:01.962Z,12.58
2019-03-27T23:49:30.856Z,13.40
2019-03-27T23:51:59.795Z,14.68
2019-03-27T23:54:31.149Z,14.00
2019-03-27T23:57:00.033Z,15.90
2019-03-27T23:59:29.229Z,15.83
